Coffey, Missouri
Current Conditions -  °F | °C
As of 6:53 PM on Wednesday 17 Dec 2014 (Local Time) from KLWD Reporting Station
Overcast Overcast  
Wind Chill: -7°   Ceiling: 8500
Heat Index: -3°   Visibility: 10mi
Dew Point: -7°   Wind: 8mph
Humidity: 72%   Direction: 60°ENE
Pressure: 30.25"   Gusts: NA
Location:  40.11°N, 94.01°W
Report Text: KLWD 180053Z AUTO 06007KT 10SM OVC085 M03/M07 A3025 RMK AO2 SLP262 T10281072
Loading
Personal Weather Stations






























Interactive Weather Map New forecast layout! Learn more

10-Day Weather Forecast

Advertisements
Track Severe Weather on mobile